sensor_id;sensor_type;location;lat;lon;timestamp;temperature;humidity
22578;DHT22;11455;52.390;13.028;2023-08-06T00:01:06;20.10;99.90
22578;DHT22;11455;52.390;13.028;2023-08-06T00:03:38;20.10;99.90
22578;DHT22;11455;52.390;13.028;2023-08-06T00:06:10;20.00;99.90
22578;DHT22;11455;52.390;13.028;2023-08-06T00:08:42;20.00;99.90
22578;DHT22;11455;52.390;13.028;2023-08-06T00:11:14;20.00;99.90
22578;DHT22;11455;52.390;13.028;2023-08-06T00:13:46;20.00;99.90
22578;DHT22;11455;52.390;13.028;2023-08-06T00:16:18;20.00;99.90
22578;DHT22;11455;52.390;13.028;2023-08-06T00:18:50;20.00;99.90
22578;DHT22;11455;52.390;13.028;2023-08-06T00:21:22;20.00;99.90
22578;DHT22;11455;52.390;13.028;2023-08-06T00:23:56;20.00;99.90
22578;DHT22;11455;52.390;13.028;2023-08-06T00:26:29;20.00;99.90
22578;DHT22;11455;52.390;13.028;2023-08-06T00:29:03;20.00;99.90
22578;DHT22;11455;52.390;13.028;2023-08-06T00:31:38;20.00;99.90
22578;DHT22;11455;52.390;13.028;2023-08-06T00:34:04;20.00;99.90
22578;DHT22;11455;52.390;13.028;2023-08-06T00:36:39;20.00;99.90
22578;DHT22;11455;52.390;13.028;2023-08-06T00:39:11;20.00;99.90
22578;DHT22;11455;52.390;13.028;2023-08-06T00:41:44;20.00;99.90
22578;DHT22;11455;52.390;13.028;2023-08-06T00:44:17;20.00;99.90
22578;DHT22;11455;52.390;13.028;2023-08-06T00:46:56;20.00;99.90
22578;DHT22;11455;52.390;13.028;2023-08-06T00:49:28;20.00;99.90
22578;DHT22;11455;52.390;13.028;2023-08-06T00:52:00;20.00;99.90
22578;DHT22;11455;52.390;13.028;2023-08-06T00:54:33;20.00;99.90
22578;DHT22;11455;52.390;13.028;2023-08-06T00:57:07;19.90;99.90
22578;DHT22;11455;52.390;13.028;2023-08-06T00:59:41;19.90;99.90
22578;DHT22;11455;52.390;13.028;2023-08-06T01:02:13;19.90;99.90
22578;DHT22;11455;52.390;13.028;2023-08-06T01:04:45;19.90;99.90
22578;DHT22;11455;52.390;13.028;2023-08-06T01:13:37;19.90;99.90
22578;DHT22;11455;52.390;13.028;2023-08-06T01:16:24;19.90;99.90
22578;DHT22;11455;52.390;13.028;2023-08-06T01:18:59;19.90;99.90
22578;DHT22;11455;52.390;13.028;2023-08-06T01:21:31;19.90;99.90
22578;DHT22;11455;52.390;13.028;2023-08-06T01:24:12;19.80;99.90
22578;DHT22;11455;52.390;13.028;2023-08-06T01:26:54;19.80;99.90
22578;DHT22;11455;52.390;13.028;2023-08-06T01:30:02;19.80;99.90
22578;DHT22;11455;52.390;13.028;2023-08-06T01:32:35;19.80;99.90
22578;DHT22;11455;52.390;13.028;2023-08-06T01:35:12;19.80;99.90
22578;DHT22;11455;52.390;13.028;2023-08-06T01:37:46;19.80;99.90
22578;DHT22;11455;52.390;13.028;2023-08-06T01:40:22;19.80;99.90
22578;DHT22;11455;52.390;13.028;2023-08-06T01:42:56;19.80;99.90
22578;DHT22;11455;52.390;13.028;2023-08-06T01:45:28;19.80;99.90
22578;DHT22;11455;52.390;13.028;2023-08-06T01:48:00;19.80;99.90
22578;DHT22;11455;52.390;13.028;2023-08-06T01:50:32;19.70;99.90
22578;DHT22;11455;52.390;13.028;2023-08-06T01:53:04;19.80;99.90
22578;DHT22;11455;52.390;13.028;2023-08-06T01:55:41;19.80;99.90
22578;DHT22;11455;52.390;13.028;2023-08-06T01:58:13;19.80;99.90
22578;DHT22;11455;52.390;13.028;2023-08-06T02:00:45;19.80;99.90
22578;DHT22;11455;52.390;13.028;2023-08-06T02:03:23;19.70;99.90
22578;DHT22;11455;52.390;13.028;2023-08-06T02:06:02;19.80;99.90
22578;DHT22;11455;52.390;13.028;2023-08-06T02:08:37;19.80;99.90
22578;DHT22;11455;52.390;13.028;2023-08-06T02:11:10;19.80;99.90
22578;DHT22;11455;52.390;13.028;2023-08-06T02:13:42;19.70;99.90
22578;DHT22;11455;52.390;13.028;2023-08-06T02:16:18;19.70;99.90
22578;DHT22;11455;52.390;13.028;2023-08-06T02:18:56;19.70;99.90
22578;DHT22;11455;52.390;13.028;2023-08-06T02:21:30;19.70;99.90
22578;DHT22;11455;52.390;13.028;2023-08-06T02:24:03;19.70;99.90
22578;DHT22;11455;52.390;13.028;2023-08-06T02:26:38;19.70;99.90
22578;DHT22;11455;52.390;13.028;2023-08-06T02:29:12;19.70;99.90
22578;DHT22;11455;52.390;13.028;2023-08-06T02:31:44;19.70;99.90
22578;DHT22;11455;52.390;13.028;2023-08-06T02:34:16;19.70;99.90
22578;DHT22;11455;52.390;13.028;2023-08-06T02:36:48;19.60;99.90
22578;DHT22;11455;52.390;13.028;2023-08-06T02:39:20;19.60;99.90
22578;DHT22;11455;52.390;13.028;2023-08-06T02:41:54;19.60;99.90
22578;DHT22;11455;52.390;13.028;2023-08-06T02:44:29;19.60;99.90
22578;DHT22;11455;52.390;13.028;2023-08-06T02:47:08;19.60;99.90
22578;DHT22;11455;52.390;13.028;2023-08-06T02:49:40;19.60;99.90
22578;DHT22;11455;52.390;13.028;2023-08-06T02:55:18;19.60;99.90
22578;DHT22;11455;52.390;13.028;2023-08-06T02:57:52;19.60;99.90
22578;DHT22;11455;52.390;13.028;2023-08-06T03:00:25;19.60;99.90
22578;DHT22;11455;52.390;13.028;2023-08-06T03:02:57;19.60;99.90
22578;DHT22;11455;52.390;13.028;2023-08-06T03:05:54;19.60;99.90
22578;DHT22;11455;52.390;13.028;2023-08-06T03:08:35;19.60;99.90
22578;DHT22;11455;52.390;13.028;2023-08-06T03:11:13;19.50;99.90
22578;DHT22;11455;52.390;13.028;2023-08-06T03:13:49;19.50;99.90
22578;DHT22;11455;52.390;13.028;2023-08-06T03:16:22;19.50;99.90
22578;DHT22;11455;52.390;13.028;2023-08-06T03:18:54;19.50;99.90
22578;DHT22;11455;52.390;13.028;2023-08-06T03:21:26;19.50;99.90
22578;DHT22;11455;52.390;13.028;2023-08-06T03:23:59;19.50;99.90
22578;DHT22;11455;52.390;13.028;2023-08-06T03:26:33;19.50;1.00
22578;DHT22;11455;52.390;13.028;2023-08-06T03:29:06;19.50;1.00
22578;DHT22;11455;52.390;13.028;2023-08-06T03:31:38;19.50;1.00
22578;DHT22;11455;52.390;13.028;2023-08-06T03:34:15;19.50;1.00
22578;DHT22;11455;52.390;13.028;2023-08-06T03:36:51;19.40;1.00
22578;DHT22;11455;52.390;13.028;2023-08-06T03:39:23;19.50;1.00
22578;DHT22;11455;52.390;13.028;2023-08-06T03:41:55;19.40;1.00
22578;DHT22;11455;52.390;13.028;2023-08-06T03:44:27;19.40;1.00
22578;DHT22;11455;52.390;13.028;2023-08-06T03:47:07;19.50;1.00
22578;DHT22;11455;52.390;13.028;2023-08-06T03:49:49;19.50;1.00
22578;DHT22;11455;52.390;13.028;2023-08-06T03:52:22;19.40;1.00
22578;DHT22;11455;52.390;13.028;2023-08-06T03:54:54;19.40;1.00
22578;DHT22;11455;52.390;13.028;2023-08-06T03:57:26;19.40;1.00
22578;DHT22;11455;52.390;13.028;2023-08-06T04:00:04;19.40;1.00
22578;DHT22;11455;52.390;13.028;2023-08-06T04:02:51;19.40;1.00
22578;DHT22;11455;52.390;13.028;2023-08-06T04:05:25;19.40;1.00
22578;DHT22;11455;52.390;13.028;2023-08-06T04:07:57;19.40;1.00
22578;DHT22;11455;52.390;13.028;2023-08-06T04:10:32;19.40;1.00
22578;DHT22;11455;52.390;13.028;2023-08-06T04:13:04;19.40;1.00
22578;DHT22;11455;52.390;13.028;2023-08-06T04:15:36;19.40;1.00
22578;DHT22;11455;52.390;13.028;2023-08-06T04:18:08;19.40;1.00
22578;DHT22;11455;52.390;13.028;2023-08-06T04:20:44;19.40;1.00
22578;DHT22;11455;52.390;13.028;2023-08-06T04:23:19;19.40;1.00
22578;DHT22;11455;52.390;13.028;2023-08-06T04:25:57;19.40;1.00
22578;DHT22;11455;52.390;13.028;2023-08-06T04:28:33;19.30;1.00
22578;DHT22;11455;52.390;13.028;2023-08-06T04:31:05;19.30;1.00
22578;DHT22;11455;52.390;13.028;2023-08-06T04:33:40;19.30;1.00
22578;DHT22;11455;52.390;13.028;2023-08-06T04:36:14;19.30;1.00
22578;DHT22;11455;52.390;13.028;2023-08-06T04:38:46;19.30;1.00
22578;DHT22;11455;52.390;13.028;2023-08-06T04:41:19;19.30;1.00
22578;DHT22;11455;52.390;13.028;2023-08-06T04:43:52;19.30;1.00
22578;DHT22;11455;52.390;13.028;2023-08-06T04:46:31;19.30;1.00
22578;DHT22;11455;52.390;13.028;2023-08-06T04:49:03;19.30;1.00
22578;DHT22;11455;52.390;13.028;2023-08-06T04:51:35;19.20;1.00
22578;DHT22;11455;52.390;13.028;2023-08-06T04:54:10;19.20;1.00
22578;DHT22;11455;52.390;13.028;2023-08-06T04:56:42;19.20;1.00
22578;DHT22;11455;52.390;13.028;2023-08-06T04:59:17;19.30;1.00
22578;DHT22;11455;52.390;13.028;2023-08-06T05:01:49;19.20;1.00
22578;DHT22;11455;52.390;13.028;2023-08-06T05:04:24;19.30;1.00
22578;DHT22;11455;52.390;13.028;2023-08-06T05:06:56;19.20;1.00
22578;DHT22;11455;52.390;13.028;2023-08-06T05:09:28;19.20;1.00
22578;DHT22;11455;52.390;13.028;2023-08-06T05:12:01;19.20;1.00
22578;DHT22;11455;52.390;13.028;2023-08-06T05:14:34;19.20;1.00
22578;DHT22;11455;52.390;13.028;2023-08-06T05:17:06;19.20;1.00
22578;DHT22;11455;52.390;13.028;2023-08-06T05:19:38;19.10;1.00
22578;DHT22;11455;52.390;13.028;2023-08-06T05:22:10;19.10;1.00
22578;DHT22;11455;52.390;13.028;2023-08-06T05:24:42;19.10;1.00
22578;DHT22;11455;52.390;13.028;2023-08-06T05:27:14;19.10;1.00
22578;DHT22;11455;52.390;13.028;2023-08-06T05:29:47;19.20;1.00
22578;DHT22;11455;52.390;13.028;2023-08-06T05:32:19;19.20;1.00
22578;DHT22;11455;52.390;13.028;2023-08-06T05:34:51;19.20;1.00
22578;DHT22;11455;52.390;13.028;2023-08-06T05:37:26;19.20;1.00
22578;DHT22;11455;52.390;13.028;2023-08-06T05:39:58;19.10;1.00
22578;DHT22;11455;52.390;13.028;2023-08-06T05:42:30;19.20;1.00
22578;DHT22;11455;52.390;13.028;2023-08-06T05:45:05;19.20;1.00
22578;DHT22;11455;52.390;13.028;2023-08-06T05:47:38;19.20;1.00
22578;DHT22;11455;52.390;13.028;2023-08-06T05:50:17;19.20;1.00
22578;DHT22;11455;52.390;13.028;2023-08-06T05:52:49;19.10;99.90
22578;DHT22;11455;52.390;13.028;2023-08-06T05:55:21;19.10;1.00
22578;DHT22;11455;52.390;13.028;2023-08-06T05:57:54;19.10;1.00
22578;DHT22;11455;52.390;13.028;2023-08-06T06:00:27;19.20;1.00
22578;DHT22;11455;52.390;13.028;2023-08-06T06:02:59;19.20;1.00
22578;DHT22;11455;52.390;13.028;2023-08-06T06:05:31;19.20;1.00
22578;DHT22;11455;52.390;13.028;2023-08-06T06:08:03;19.20;1.00
22578;DHT22;11455;52.390;13.028;2023-08-06T06:10:35;19.20;1.00
22578;DHT22;11455;52.390;13.028;2023-08-06T06:13:07;19.30;1.00
22578;DHT22;11455;52.390;13.028;2023-08-06T06:15:41;19.50;99.90
22578;DHT22;11455;52.390;13.028;2023-08-06T06:18:16;19.70;99.90
22578;DHT22;11455;52.390;13.028;2023-08-06T06:20:50;19.90;99.90
22578;DHT22;11455;52.390;13.028;2023-08-06T06:23:23;20.10;99.90
22578;DHT22;11455;52.390;13.028;2023-08-06T06:25:55;20.20;99.90
22578;DHT22;11455;52.390;13.028;2023-08-06T06:28:30;20.20;99.90
22578;DHT22;11455;52.390;13.028;2023-08-06T06:31:02;20.10;99.90
22578;DHT22;11455;52.390;13.028;2023-08-06T06:33:35;19.90;99.90
22578;DHT22;11455;52.390;13.028;2023-08-06T06:36:07;19.80;99.90
22578;DHT22;11455;52.390;13.028;2023-08-06T06:38:41;19.80;99.90
22578;DHT22;11455;52.390;13.028;2023-08-06T06:41:18;19.70;99.90
22578;DHT22;11455;52.390;13.028;2023-08-06T06:43:52;19.70;99.90
22578;DHT22;11455;52.390;13.028;2023-08-06T06:46:27;19.70;99.90
22578;DHT22;11455;52.390;13.028;2023-08-06T06:49:06;19.90;99.90
22578;DHT22;11455;52.390;13.028;2023-08-06T06:51:41;20.00;99.90
22578;DHT22;11455;52.390;13.028;2023-08-06T06:54:13;20.00;99.90
22578;DHT22;11455;52.390;13.028;2023-08-06T06:56:45;20.10;99.90
22578;DHT22;11455;52.390;13.028;2023-08-06T06:59:18;20.20;99.90
22578;DHT22;11455;52.390;13.028;2023-08-06T07:01:50;20.30;99.90
22578;DHT22;11455;52.390;13.028;2023-08-06T07:04:22;20.30;99.90
22578;DHT22;11455;52.390;13.028;2023-08-06T07:06:56;20.30;99.90
22578;DHT22;11455;52.390;13.028;2023-08-06T07:09:30;20.30;99.90
22578;DHT22;11455;52.390;13.028;2023-08-06T07:12:03;20.40;99.90
22578;DHT22;11455;52.390;13.028;2023-08-06T07:14:36;20.50;99.90
22578;DHT22;11455;52.390;13.028;2023-08-06T07:17:08;20.50;99.90
22578;DHT22;11455;52.390;13.028;2023-08-06T07:19:40;20.50;99.90
22578;DHT22;11455;52.390;13.028;2023-08-06T07:22:12;20.60;99.90
22578;DHT22;11455;52.390;13.028;2023-08-06T07:24:44;20.60;99.90
22578;DHT22;11455;52.390;13.028;2023-08-06T07:27:16;20.60;99.90
22578;DHT22;11455;52.390;13.028;2023-08-06T07:29:42;20.70;99.90
22578;DHT22;11455;52.390;13.028;2023-08-06T07:32:14;20.70;99.90
22578;DHT22;11455;52.390;13.028;2023-08-06T07:34:46;20.60;99.90
22578;DHT22;11455;52.390;13.028;2023-08-06T07:37:18;20.70;99.90
22578;DHT22;11455;52.390;13.028;2023-08-06T07:39:50;20.70;99.90
22578;DHT22;11455;52.390;13.028;2023-08-06T07:42:22;20.50;99.90
22578;DHT22;11455;52.390;13.028;2023-08-06T07:44:56;20.50;99.90
22578;DHT22;11455;52.390;13.028;2023-08-06T07:47:28;20.40;99.90
22578;DHT22;11455;52.390;13.028;2023-08-06T07:50:00;20.30;99.90
22578;DHT22;11455;52.390;13.028;2023-08-06T07:52:41;20.30;99.90
22578;DHT22;11455;52.390;13.028;2023-08-06T07:55:14;20.30;99.90
22578;DHT22;11455;52.390;13.028;2023-08-06T07:57:47;20.20;99.90
22578;DHT22;11455;52.390;13.028;2023-08-06T08:00:19;20.20;99.90
22578;DHT22;11455;52.390;13.028;2023-08-06T08:02:51;20.20;99.90
22578;DHT22;11455;52.390;13.028;2023-08-06T08:05:25;20.40;99.90
22578;DHT22;11455;52.390;13.028;2023-08-06T08:07:57;20.50;99.90
22578;DHT22;11455;52.390;13.028;2023-08-06T08:10:29;20.60;99.90
22578;DHT22;11455;52.390;13.028;2023-08-06T08:13:02;20.70;99.90
22578;DHT22;11455;52.390;13.028;2023-08-06T08:15:36;20.70;99.90
22578;DHT22;11455;52.390;13.028;2023-08-06T08:18:10;20.70;99.90
22578;DHT22;11455;52.390;13.028;2023-08-06T08:20:42;20.80;99.90
22578;DHT22;11455;52.390;13.028;2023-08-06T08:23:14;20.80;99.90
22578;DHT22;11455;52.390;13.028;2023-08-06T08:25:46;20.80;99.90
22578;DHT22;11455;52.390;13.028;2023-08-06T08:28:12;20.80;99.90
22578;DHT22;11455;52.390;13.028;2023-08-06T08:30:46;20.80;99.90
22578;DHT22;11455;52.390;13.028;2023-08-06T08:33:20;20.60;99.90
22578;DHT22;11455;52.390;13.028;2023-08-06T08:35:52;20.50;99.90
22578;DHT22;11455;52.390;13.028;2023-08-06T08:38:24;20.30;99.90
22578;DHT22;11455;52.390;13.028;2023-08-06T08:40:56;20.20;99.90
22578;DHT22;11455;52.390;13.028;2023-08-06T08:43:29;20.20;99.90
22578;DHT22;11455;52.390;13.028;2023-08-06T08:46:04;20.10;99.90
22578;DHT22;11455;52.390;13.028;2023-08-06T08:48:44;20.10;99.90
22578;DHT22;11455;52.390;13.028;2023-08-06T08:51:17;20.10;99.90
22578;DHT22;11455;52.390;13.028;2023-08-06T08:53:53;20.00;99.90
22578;DHT22;11455;52.390;13.028;2023-08-06T08:56:30;20.00;99.90
22578;DHT22;11455;52.390;13.028;2023-08-06T08:59:03;20.00;99.90
22578;DHT22;11455;52.390;13.028;2023-08-06T09:01:39;20.00;99.90
22578;DHT22;11455;52.390;13.028;2023-08-06T09:04:12;20.00;99.90
22578;DHT22;11455;52.390;13.028;2023-08-06T09:06:46;19.90;99.90
22578;DHT22;11455;52.390;13.028;2023-08-06T09:09:32;19.90;99.90
22578;DHT22;11455;52.390;13.028;2023-08-06T09:12:14;19.80;99.90
22578;DHT22;11455;52.390;13.028;2023-08-06T09:14:56;19.70;99.90
22578;DHT22;11455;52.390;13.028;2023-08-06T09:17:29;19.70;99.90
22578;DHT22;11455;52.390;13.028;2023-08-06T09:20:18;19.70;1.00
22578;DHT22;11455;52.390;13.028;2023-08-06T09:22:53;19.70;1.00
22578;DHT22;11455;52.390;13.028;2023-08-06T09:25:25;19.60;1.00
22578;DHT22;11455;52.390;13.028;2023-08-06T09:27:58;19.70;1.00
22578;DHT22;11455;52.390;13.028;2023-08-06T09:30:32;19.70;1.00
22578;DHT22;11455;52.390;13.028;2023-08-06T09:33:11;19.60;1.00
22578;DHT22;11455;52.390;13.028;2023-08-06T09:35:49;19.50;1.00
22578;DHT22;11455;52.390;13.028;2023-08-06T09:38:37;19.40;1.00
22578;DHT22;11455;52.390;13.028;2023-08-06T09:41:27;19.50;1.00
22578;DHT22;11455;52.390;13.028;2023-08-06T09:44:02;19.50;1.00
22578;DHT22;11455;52.390;13.028;2023-08-06T09:46:35;19.60;1.00
22578;DHT22;11455;52.390;13.028;2023-08-06T09:49:07;19.60;1.00
22578;DHT22;11455;52.390;13.028;2023-08-06T09:51:43;19.60;1.00
22578;DHT22;11455;52.390;13.028;2023-08-06T09:54:16;19.60;1.00
22578;DHT22;11455;52.390;13.028;2023-08-06T09:56:51;19.60;1.00
22578;DHT22;11455;52.390;13.028;2023-08-06T09:59:24;19.60;1.00
22578;DHT22;11455;52.390;13.028;2023-08-06T10:01:58;19.60;1.00
22578;DHT22;11455;52.390;13.028;2023-08-06T10:04:30;19.60;1.00
22578;DHT22;11455;52.390;13.028;2023-08-06T10:07:03;19.70;1.00
22578;DHT22;11455;52.390;13.028;2023-08-06T10:09:36;19.70;1.00
22578;DHT22;11455;52.390;13.028;2023-08-06T10:12:09;19.70;1.00
22578;DHT22;11455;52.390;13.028;2023-08-06T10:14:42;19.50;1.00
22578;DHT22;11455;52.390;13.028;2023-08-06T10:17:16;19.50;1.00
22578;DHT22;11455;52.390;13.028;2023-08-06T10:19:50;19.40;1.00
22578;DHT22;11455;52.390;13.028;2023-08-06T10:22:23;19.40;1.00
22578;DHT22;11455;52.390;13.028;2023-08-06T10:24:58;19.40;1.00
22578;DHT22;11455;52.390;13.028;2023-08-06T10:27:52;19.50;1.00
22578;DHT22;11455;52.390;13.028;2023-08-06T10:30:31;19.60;1.00
22578;DHT22;11455;52.390;13.028;2023-08-06T10:33:06;19.70;1.00
22578;DHT22;11455;52.390;13.028;2023-08-06T10:35:45;19.70;1.00
22578;DHT22;11455;52.390;13.028;2023-08-06T10:38:25;19.70;1.00
22578;DHT22;11455;52.390;13.028;2023-08-06T10:43:36;19.60;1.00
22578;DHT22;11455;52.390;13.028;2023-08-06T10:46:22;19.60;1.00
22578;DHT22;11455;52.390;13.028;2023-08-06T10:48:54;19.50;1.00
22578;DHT22;11455;52.390;13.028;2023-08-06T10:51:33;19.50;1.00
22578;DHT22;11455;52.390;13.028;2023-08-06T10:54:05;19.50;1.00
22578;DHT22;11455;52.390;13.028;2023-08-06T10:56:40;19.50;1.00
22578;DHT22;11455;52.390;13.028;2023-08-06T10:59:17;19.50;1.00
22578;DHT22;11455;52.390;13.028;2023-08-06T11:01:50;19.60;1.00
22578;DHT22;11455;52.390;13.028;2023-08-06T11:04:22;19.60;1.00
22578;DHT22;11455;52.390;13.028;2023-08-06T11:06:55;19.70;1.00
22578;DHT22;11455;52.390;13.028;2023-08-06T11:09:27;19.60;1.00
22578;DHT22;11455;52.390;13.028;2023-08-06T11:11:59;19.60;1.00
22578;DHT22;11455;52.390;13.028;2023-08-06T11:14:31;19.60;1.00
22578;DHT22;11455;52.390;13.028;2023-08-06T11:17:05;19.60;1.00
22578;DHT22;11455;52.390;13.028;2023-08-06T11:19:39;19.60;1.00
22578;DHT22;11455;52.390;13.028;2023-08-06T11:22:12;19.70;1.00
22578;DHT22;11455;52.390;13.028;2023-08-06T11:24:46;19.70;1.00
22578;DHT22;11455;52.390;13.028;2023-08-06T11:27:28;19.70;1.00
22578;DHT22;11455;52.390;13.028;2023-08-06T11:30:06;19.70;1.00
22578;DHT22;11455;52.390;13.028;2023-08-06T11:32:45;19.70;1.00
22578;DHT22;11455;52.390;13.028;2023-08-06T11:35:21;19.70;1.00
22578;DHT22;11455;52.390;13.028;2023-08-06T11:37:54;19.70;1.00
22578;DHT22;11455;52.390;13.028;2023-08-06T11:40:29;19.80;1.00
22578;DHT22;11455;52.390;13.028;2023-08-06T11:43:01;19.70;1.00
22578;DHT22;11455;52.390;13.028;2023-08-06T11:45:37;19.70;1.00
22578;DHT22;11455;52.390;13.028;2023-08-06T11:48:09;19.70;1.00
22578;DHT22;11455;52.390;13.028;2023-08-06T11:51:00;19.70;1.00
22578;DHT22;11455;52.390;13.028;2023-08-06T11:53:32;19.80;1.00
22578;DHT22;11455;52.390;13.028;2023-08-06T11:56:04;19.80;1.00
22578;DHT22;11455;52.390;13.028;2023-08-06T11:58:30;19.80;1.00
22578;DHT22;11455;52.390;13.028;2023-08-06T12:01:02;19.80;1.00
22578;DHT22;11455;52.390;13.028;2023-08-06T12:03:41;19.70;1.00
22578;DHT22;11455;52.390;13.028;2023-08-06T12:06:13;19.60;1.00
22578;DHT22;11455;52.390;13.028;2023-08-06T12:08:45;19.60;1.00
22578;DHT22;11455;52.390;13.028;2023-08-06T12:11:21;19.60;1.00
22578;DHT22;11455;52.390;13.028;2023-08-06T12:13:54;19.60;1.00
22578;DHT22;11455;52.390;13.028;2023-08-06T12:16:28;19.60;1.00
22578;DHT22;11455;52.390;13.028;2023-08-06T12:19:00;19.60;1.00
22578;DHT22;11455;52.390;13.028;2023-08-06T12:21:32;19.60;1.00
22578;DHT22;11455;52.390;13.028;2023-08-06T12:24:04;19.70;1.00
22578;DHT22;11455;52.390;13.028;2023-08-06T12:26:38;19.70;1.00
22578;DHT22;11455;52.390;13.028;2023-08-06T12:29:10;19.70;1.00
22578;DHT22;11455;52.390;13.028;2023-08-06T12:31:44;19.70;1.00
22578;DHT22;11455;52.390;13.028;2023-08-06T12:34:17;19.70;1.00
22578;DHT22;11455;52.390;13.028;2023-08-06T12:36:49;19.80;1.00
22578;DHT22;11455;52.390;13.028;2023-08-06T12:39:21;19.90;1.00
22578;DHT22;11455;52.390;13.028;2023-08-06T12:41:56;19.90;1.00
22578;DHT22;11455;52.390;13.028;2023-08-06T12:44:35;20.00;1.00
22578;DHT22;11455;52.390;13.028;2023-08-06T12:47:11;20.10;99.90
22578;DHT22;11455;52.390;13.028;2023-08-06T12:49:53;20.00;1.00
22578;DHT22;11455;52.390;13.028;2023-08-06T12:52:25;20.00;1.00
22578;DHT22;11455;52.390;13.028;2023-08-06T12:54:57;20.00;1.00
22578;DHT22;11455;52.390;13.028;2023-08-06T12:57:29;20.10;1.00
22578;DHT22;11455;52.390;13.028;2023-08-06T12:59:55;20.10;1.00
22578;DHT22;11455;52.390;13.028;2023-08-06T13:02:27;20.10;1.00
22578;DHT22;11455;52.390;13.028;2023-08-06T13:05:01;20.10;1.00
22578;DHT22;11455;52.390;13.028;2023-08-06T13:07:37;20.10;1.00
22578;DHT22;11455;52.390;13.028;2023-08-06T13:10:12;20.00;1.00
22578;DHT22;11455;52.390;13.028;2023-08-06T13:12:44;20.00;1.00
22578;DHT22;11455;52.390;13.028;2023-08-06T13:15:16;20.00;1.00
22578;DHT22;11455;52.390;13.028;2023-08-06T13:17:49;20.00;1.00
22578;DHT22;11455;52.390;13.028;2023-08-06T13:20:23;20.10;1.00
22578;DHT22;11455;52.390;13.028;2023-08-06T13:23:01;20.00;1.00
22578;DHT22;11455;52.390;13.028;2023-08-06T13:25:33;20.00;1.00
22578;DHT22;11455;52.390;13.028;2023-08-06T13:28:08;20.10;1.00
22578;DHT22;11455;52.390;13.028;2023-08-06T13:30:42;20.20;1.00
22578;DHT22;11455;52.390;13.028;2023-08-06T13:33:15;20.20;1.00
22578;DHT22;11455;52.390;13.028;2023-08-06T13:35:47;20.30;1.00
22578;DHT22;11455;52.390;13.028;2023-08-06T13:38:19;20.30;1.00
22578;DHT22;11455;52.390;13.028;2023-08-06T13:40:51;20.40;1.00
22578;DHT22;11455;52.390;13.028;2023-08-06T13:43:24;20.50;99.90
22578;DHT22;11455;52.390;13.028;2023-08-06T13:45:56;20.50;99.90
22578;DHT22;11455;52.390;13.028;2023-08-06T13:48:29;20.50;99.90
22578;DHT22;11455;52.390;13.028;2023-08-06T13:51:01;20.50;99.90
22578;DHT22;11455;52.390;13.028;2023-08-06T13:53:33;20.50;1.00
22578;DHT22;11455;52.390;13.028;2023-08-06T13:56:06;20.50;99.90
22578;DHT22;11455;52.390;13.028;2023-08-06T13:58:33;20.60;99.90
22578;DHT22;11455;52.390;13.028;2023-08-06T14:01:05;20.50;1.00
22578;DHT22;11455;52.390;13.028;2023-08-06T14:03:38;20.60;99.90
22578;DHT22;11455;52.390;13.028;2023-08-06T14:06:10;20.50;99.90
22578;DHT22;11455;52.390;13.028;2023-08-06T14:08:42;20.60;99.90
22578;DHT22;11455;52.390;13.028;2023-08-06T14:11:14;20.50;99.90
22578;DHT22;11455;52.390;13.028;2023-08-06T14:13:49;20.50;99.90
22578;DHT22;11455;52.390;13.028;2023-08-06T14:16:21;20.60;99.90
22578;DHT22;11455;52.390;13.028;2023-08-06T14:18:53;20.60;99.90
22578;DHT22;11455;52.390;13.028;2023-08-06T14:21:25;20.60;99.90
22578;DHT22;11455;52.390;13.028;2023-08-06T14:23:59;20.60;99.90
22578;DHT22;11455;52.390;13.028;2023-08-06T14:26:31;20.60;99.90
22578;DHT22;11455;52.390;13.028;2023-08-06T14:29:03;20.50;99.90
22578;DHT22;11455;52.390;13.028;2023-08-06T14:31:38;20.40;99.90
22578;DHT22;11455;52.390;13.028;2023-08-06T14:34:10;20.30;99.90
22578;DHT22;11455;52.390;13.028;2023-08-06T14:36:42;20.20;99.90
22578;DHT22;11455;52.390;13.028;2023-08-06T14:39:14;20.20;99.90
22578;DHT22;11455;52.390;13.028;2023-08-06T14:41:46;20.20;1.00
22578;DHT22;11455;52.390;13.028;2023-08-06T14:44:19;20.10;1.00
22578;DHT22;11455;52.390;13.028;2023-08-06T14:46:51;20.10;1.00
22578;DHT22;11455;52.390;13.028;2023-08-06T14:49:30;20.00;1.00
22578;DHT22;11455;52.390;13.028;2023-08-06T14:52:02;20.00;1.00
22578;DHT22;11455;52.390;13.028;2023-08-06T14:54:34;19.90;1.00
22578;DHT22;11455;52.390;13.028;2023-08-06T14:57:06;19.90;1.00
22578;DHT22;11455;52.390;13.028;2023-08-06T14:59:41;19.80;1.00
22578;DHT22;11455;52.390;13.028;2023-08-06T15:02:15;19.50;1.00
22578;DHT22;11455;52.390;13.028;2023-08-06T15:04:48;19.40;1.00
22578;DHT22;11455;52.390;13.028;2023-08-06T15:07:15;19.30;1.00
22578;DHT22;11455;52.390;13.028;2023-08-06T15:09:47;19.10;1.00
22578;DHT22;11455;52.390;13.028;2023-08-06T15:12:19;18.90;1.00
22578;DHT22;11455;52.390;13.028;2023-08-06T15:14:52;18.80;1.00
22578;DHT22;11455;52.390;13.028;2023-08-06T15:17:28;18.80;1.00
22578;DHT22;11455;52.390;13.028;2023-08-06T15:20:04;18.90;1.00
22578;DHT22;11455;52.390;13.028;2023-08-06T15:22:36;18.90;1.00
22578;DHT22;11455;52.390;13.028;2023-08-06T15:25:08;18.90;1.00
22578;DHT22;11455;52.390;13.028;2023-08-06T15:27:40;18.90;1.00
22578;DHT22;11455;52.390;13.028;2023-08-06T15:30:12;19.00;1.00
22578;DHT22;11455;52.390;13.028;2023-08-06T15:32:45;19.10;1.00
22578;DHT22;11455;52.390;13.028;2023-08-06T15:35:15;19.20;1.00
22578;DHT22;11455;52.390;13.028;2023-08-06T15:37:49;19.20;1.00
22578;DHT22;11455;52.390;13.028;2023-08-06T15:40:25;19.20;1.00
22578;DHT22;11455;52.390;13.028;2023-08-06T15:43:00;19.10;1.00
22578;DHT22;11455;52.390;13.028;2023-08-06T15:45:33;19.10;1.00
22578;DHT22;11455;52.390;13.028;2023-08-06T15:48:15;19.10;1.00
22578;DHT22;11455;52.390;13.028;2023-08-06T15:50:50;19.20;1.00
22578;DHT22;11455;52.390;13.028;2023-08-06T15:53:22;19.20;1.00
22578;DHT22;11455;52.390;13.028;2023-08-06T15:55:48;19.20;1.00
22578;DHT22;11455;52.390;13.028;2023-08-06T15:58:20;19.20;1.00
22578;DHT22;11455;52.390;13.028;2023-08-06T16:00:52;19.20;1.00
22578;DHT22;11455;52.390;13.028;2023-08-06T16:03:28;19.30;1.00
22578;DHT22;11455;52.390;13.028;2023-08-06T16:06:00;19.30;1.00
22578;DHT22;11455;52.390;13.028;2023-08-06T16:08:32;19.30;1.00
22578;DHT22;11455;52.390;13.028;2023-08-06T16:11:04;19.20;1.00
22578;DHT22;11455;52.390;13.028;2023-08-06T16:13:37;19.10;1.00
22578;DHT22;11455;52.390;13.028;2023-08-06T16:16:03;19.10;1.00
22578;DHT22;11455;52.390;13.028;2023-08-06T16:18:40;19.20;1.00